createdAt,value
2023-01-01T00:00:39.644Z,1020.82
2023-01-01T00:01:41.069Z,1020.67
2023-01-01T00:02:41.705Z,1020.66
2023-01-01T00:03:42.380Z,1020.59
2023-01-01T00:04:42.959Z,1020.49
2023-01-01T00:05:43.562Z,1020.49
2023-01-01T00:06:44.305Z,1020.43
2023-01-01T00:07:44.907Z,1020.38
2023-01-01T00:08:45.504Z,1020.40
2023-01-01T00:09:46.113Z,1020.54
2023-01-01T00:10:46.704Z,1020.60
2023-01-01T00:11:48.101Z,1020.62
2023-01-01T00:12:48.704Z,1020.59
2023-01-01T00:13:49.296Z,1020.53
2023-01-01T00:14:49.894Z,1020.71
2023-01-01T00:15:50.498Z,1020.77
2023-01-01T00:16:51.109Z,1020.61
2023-01-01T00:17:51.748Z,1020.72
2023-01-01T00:18:52.344Z,1020.68
2023-01-01T00:19:52.946Z,1020.82
2023-01-01T00:20:53.585Z,1020.85
2023-01-01T00:21:54.201Z,1020.75
2023-01-01T00:22:56.046Z,1020.64
2023-01-01T00:23:56.393Z,1020.58
2023-01-01T00:24:56.985Z,1020.58
2023-01-01T00:25:57.591Z,1020.63
2023-01-01T00:26:58.184Z,1020.58
2023-01-01T00:27:58.787Z,1020.51
2023-01-01T00:28:59.384Z,1020.49
2023-01-01T00:30:00.847Z,1020.46
2023-01-01T00:31:02.239Z,1020.42
2023-01-01T00:32:03.028Z,1020.42
2023-01-01T00:33:03.801Z,1020.35
2023-01-01T00:34:04.406Z,1020.37
2023-01-01T00:35:05.232Z,1020.38
2023-01-01T00:36:05.821Z,1020.32
2023-01-01T00:37:06.412Z,1020.37
2023-01-01T00:38:07.016Z,1020.33
2023-01-01T00:39:07.672Z,1020.32
2023-01-01T00:40:08.401Z,1020.34
2023-01-01T00:41:08.997Z,1020.36
2023-01-01T00:42:09.598Z,1020.44
2023-01-01T00:43:10.205Z,1020.53
2023-01-01T00:44:10.796Z,1020.48
2023-01-01T00:45:15.580Z,1020.44
2023-01-01T00:46:13.045Z,1020.46
2023-01-01T00:47:13.650Z,1020.44
2023-01-01T00:48:14.253Z,1020.34
2023-01-01T00:49:14.853Z,1020.29
2023-01-01T00:50:15.523Z,1020.29
2023-01-01T00:51:16.105Z,1020.33
2023-01-01T00:52:16.708Z,1020.30
2023-01-01T00:53:17.304Z,1020.30
2023-01-01T00:54:17.910Z,1020.26
2023-01-01T00:55:19.309Z,1020.25
2023-01-01T00:56:19.969Z,1020.34
2023-01-01T00:57:20.564Z,1020.26
2023-01-01T00:58:21.167Z,1020.28
2023-01-01T00:59:28.362Z,1020.23
2023-01-01T01:00:23.489Z,1020.23
2023-01-01T01:01:24.136Z,1020.14
2023-01-01T01:02:24.968Z,1020.25
2023-01-01T01:03:25.652Z,1020.22
2023-01-01T01:04:26.259Z,1020.17
2023-01-01T01:05:26.852Z,1020.13
2023-01-01T01:06:27.457Z,1020.06
2023-01-01T01:07:28.118Z,1020.07
2023-01-01T01:08:31.225Z,1020.03
2023-01-01T01:09:30.312Z,1020.06
2023-01-01T01:10:30.912Z,1019.98
2023-01-01T01:11:31.505Z,1019.92
2023-01-01T01:12:32.109Z,1019.92
2023-01-01T01:13:32.702Z,1019.90
2023-01-01T01:14:33.317Z,1019.91
2023-01-01T01:15:33.971Z,1019.85
2023-01-01T01:16:34.601Z,1019.91
2023-01-01T01:17:35.224Z,1019.88
2023-01-01T01:18:35.819Z,1019.85
2023-01-01T01:19:36.489Z,1019.88
2023-01-01T01:20:37.953Z,1019.80
2023-01-01T01:21:38.544Z,1019.74
2023-01-01T01:22:39.144Z,1019.70
2023-01-01T01:23:39.746Z,1019.73
2023-01-01T01:24:40.408Z,1019.82
2023-01-01T01:25:41.003Z,1019.78
2023-01-01T01:26:41.609Z,1019.89
2023-01-01T01:27:42.204Z,1019.87
2023-01-01T01:28:49.013Z,1019.95
2023-01-01T01:29:44.400Z,1019.89
2023-01-01T01:30:45.012Z,1019.82
2023-01-01T01:31:45.685Z,1019.91
2023-01-01T01:32:47.135Z,1019.85
2023-01-01T01:33:47.732Z,1019.81
2023-01-01T01:34:48.448Z,1019.65
2023-01-01T01:35:49.040Z,1019.66
2023-01-01T01:36:49.638Z,1019.60
2023-01-01T01:37:50.237Z,1019.65
2023-01-01T01:38:50.846Z,1019.61
2023-01-01T01:39:53.960Z,1019.60
2023-01-01T01:40:53.185Z,1019.67
2023-01-01T01:41:54.574Z,1019.65
2023-01-01T01:42:55.176Z,1019.64
2023-01-01T01:43:55.780Z,1019.61
2023-01-01T01:44:57.175Z,1019.64
2023-01-01T01:45:57.876Z,1019.50
2023-01-01T01:46:58.524Z,1019.53
2023-01-01T01:47:59.117Z,1019.52
2023-01-01T01:48:59.720Z,1019.43
2023-01-01T01:50:00.312Z,1019.52
2023-01-01T01:51:00.914Z,1019.56
2023-01-01T01:52:01.509Z,1019.45
2023-01-01T01:53:02.114Z,1019.48
2023-01-01T01:54:02.790Z,1019.42
2023-01-01T01:55:03.449Z,1019.44
2023-01-01T01:56:04.038Z,1019.42
2023-01-01T01:57:04.642Z,1019.43
2023-01-01T01:58:05.244Z,1019.44
2023-01-01T01:59:05.849Z,1019.42
2023-01-01T02:00:10.953Z,1019.32
2023-01-01T02:01:08.121Z,1019.40
2023-01-01T02:02:08.828Z,1019.38
2023-01-01T02:03:09.580Z,1019.35
2023-01-01T02:04:10.185Z,1019.38
2023-01-01T02:05:10.797Z,1019.29
2023-01-01T02:06:11.396Z,1019.32
2023-01-01T02:07:12.063Z,1019.29
2023-01-01T02:08:12.655Z,1019.27
2023-01-01T02:09:13.266Z,1019.18
2023-01-01T02:10:13.870Z,1019.11
2023-01-01T02:11:20.156Z,1019.11
2023-01-01T02:12:16.054Z,1019.15
2023-01-01T02:13:16.660Z,1019.07
2023-01-01T02:14:17.323Z,1019.00
2023-01-01T02:15:17.927Z,1019.05
2023-01-01T02:16:18.629Z,1019.11
2023-01-01T02:17:19.306Z,1019.05
2023-01-01T02:18:19.896Z,1018.97
2023-01-01T02:19:20.498Z,1018.94
2023-01-01T02:20:21.168Z,1018.99
2023-01-01T02:21:21.768Z,1018.96
2023-01-01T02:22:22.368Z,1018.91
2023-01-01T02:23:22.971Z,1018.87
2023-01-01T02:24:23.571Z,1018.98
2023-01-01T02:25:24.164Z,1018.87
2023-01-01T02:26:24.750Z,1018.75
2023-01-01T02:27:25.356Z,1018.77
2023-01-01T02:28:25.959Z,1018.73
2023-01-01T02:29:26.550Z,1018.75
2023-01-01T02:30:27.142Z,1018.69
2023-01-01T02:31:27.798Z,1018.66
2023-01-01T02:32:28.437Z,1018.64
2023-01-01T02:33:29.890Z,1018.61
2023-01-01T02:34:30.495Z,1018.64
2023-01-01T02:35:31.086Z,1018.58
2023-01-01T02:36:31.701Z,1018.55
2023-01-01T02:37:32.288Z,1018.52
2023-01-01T02:38:32.929Z,1018.50
2023-01-01T02:39:33.583Z,1018.54
2023-01-01T02:40:34.178Z,1018.63
2023-01-01T02:41:35.627Z,1018.58
2023-01-01T02:42:36.283Z,1018.60
2023-01-01T02:43:36.876Z,1018.54
2023-01-01T02:44:37.470Z,1018.57
2023-01-01T02:45:38.071Z,1018.50
2023-01-01T02:46:39.514Z,1018.54
2023-01-01T02:47:40.118Z,1018.53
2023-01-01T02:48:40.714Z,1018.59
2023-01-01T02:49:41.387Z,1018.53
2023-01-01T02:50:41.977Z,1018.46
2023-01-01T02:51:42.583Z,1018.48
2023-01-01T02:52:43.171Z,1018.39
2023-01-01T02:53:43.770Z,1018.38
2023-01-01T02:54:44.365Z,1018.46
2023-01-01T02:55:44.969Z,1018.37
2023-01-01T02:56:45.585Z,1018.43
2023-01-01T02:57:46.190Z,1018.31
2023-01-01T02:58:46.786Z,1018.35
2023-01-01T02:59:47.466Z,1018.34
2023-01-01T03:00:48.048Z,1018.37
2023-01-01T03:01:48.765Z,1018.41
2023-01-01T03:02:51.095Z,1018.53
2023-01-01T03:03:50.905Z,1018.54
2023-01-01T03:04:51.506Z,1018.52
2023-01-01T03:05:52.102Z,1018.42
2023-01-01T03:06:52.697Z,1018.34
2023-01-01T03:07:53.305Z,1018.21
2023-01-01T03:08:53.966Z,1018.24
2023-01-01T03:09:54.572Z,1018.29
2023-01-01T03:10:55.250Z,1018.40
2023-01-01T03:11:55.839Z,1018.34
2023-01-01T03:12:56.432Z,1018.34
2023-01-01T03:13:57.038Z,1018.34
2023-01-01T03:14:57.648Z,1018.38
2023-01-01T03:15:58.267Z,1018.40
2023-01-01T03:16:58.883Z,1018.35
2023-01-01T03:17:59.488Z,1018.40
2023-01-01T03:19:00.151Z,1018.34
2023-01-01T03:20:00.754Z,1018.32
2023-01-01T03:21:01.368Z,1018.28
2023-01-01T03:22:01.970Z,1018.27
2023-01-01T03:23:02.563Z,1018.33
2023-01-01T03:24:03.156Z,1018.25
2023-01-01T03:25:03.751Z,1018.11
2023-01-01T03:26:04.355Z,1018.17
2023-01-01T03:27:05.073Z,1018.08
2023-01-01T03:28:05.674Z,1018.09
2023-01-01T03:29:06.268Z,1018.10
2023-01-01T03:30:06.882Z,1018.05
2023-01-01T03:31:07.501Z,1018.01
2023-01-01T03:32:08.111Z,1018.04
2023-01-01T03:33:08.709Z,1018.07
2023-01-01T03:34:09.307Z,1018.03
2023-01-01T03:35:09.908Z,1018.01
2023-01-01T03:36:10.502Z,1018.08
2023-01-01T03:37:11.098Z,1017.96
2023-01-01T03:38:11.707Z,1017.94
2023-01-01T03:39:12.299Z,1017.93
2023-01-01T03:40:12.950Z,1017.93
2023-01-01T03:41:13.545Z,1017.94
2023-01-01T03:42:14.207Z,1017.94
2023-01-01T03:43:14.843Z,1017.92
2023-01-01T03:44:15.444Z,1017.88
2023-01-01T03:45:16.045Z,1017.90
2023-01-01T03:46:16.758Z,1017.87
2023-01-01T03:47:17.410Z,1017.88
2023-01-01T03:48:18.064Z,1017.89
2023-01-01T03:49:18.805Z,1017.81
2023-01-01T03:50:19.423Z,1017.92
2023-01-01T03:51:20.001Z,1017.92
2023-01-01T03:52:20.600Z,1017.87
2023-01-01T03:53:21.195Z,1017.98
2023-01-01T03:54:21.836Z,1017.96
2023-01-01T03:55:22.459Z,1017.91
2023-01-01T03:56:23.060Z,1017.84
2023-01-01T03:57:23.664Z,1017.89
2023-01-01T03:58:24.260Z,1017.86
2023-01-01T03:59:24.884Z,1017.86
2023-01-01T04:00:25.467Z,1017.91
2023-01-01T04:01:26.212Z,1017.77
2023-01-01T04:02:27.067Z,1017.75
2023-01-01T04:03:27.773Z,1017.66
2023-01-01T04:04:28.377Z,1017.77
2023-01-01T04:05:28.981Z,1017.57
2023-01-01T04:06:29.576Z,1017.64
2023-01-01T04:07:30.180Z,1017.60
2023-01-01T04:08:30.780Z,1017.57
2023-01-01T04:09:31.380Z,1017.61
2023-01-01T04:10:31.978Z,1017.58
2023-01-01T04:11:32.581Z,1017.52
2023-01-01T04:12:33.175Z,1017.64
2023-01-01T04:13:33.779Z,1017.51
2023-01-01T04:14:34.373Z,1017.60
2023-01-01T04:15:34.985Z,1017.50
2023-01-01T04:16:35.641Z,1017.52
2023-01-01T04:17:36.239Z,1017.50
2023-01-01T04:18:36.834Z,1017.54
2023-01-01T04:19:37.436Z,1017.57
2023-01-01T04:20:38.032Z,1017.58
2023-01-01T04:21:38.634Z,1017.56
2023-01-01T04:22:39.227Z,1017.55
2023-01-01T04:23:39.834Z,1017.56
2023-01-01T04:24:40.430Z,1017.58
2023-01-01T04:25:41.040Z,1017.50
2023-01-01T04:26:41.700Z,1017.52
2023-01-01T04:27:42.300Z,1017.53
2023-01-01T04:28:42.896Z,1017.44
2023-01-01T04:29:43.499Z,1017.51
2023-01-01T04:31:06.398Z,1017.38
2023-01-01T04:32:06.998Z,1017.51
2023-01-01T04:33:07.594Z,1017.48
2023-01-01T04:34:08.190Z,1017.43
2023-01-01T04:35:08.799Z,1017.47
2023-01-01T04:36:09.457Z,1017.41
2023-01-01T04:37:13.463Z,1017.37
2023-01-01T04:38:11.646Z,1017.39
2023-01-01T04:39:12.248Z,1017.38
2023-01-01T04:40:12.868Z,1017.25
2023-01-01T04:41:13.459Z,1017.34
2023-01-01T04:42:14.065Z,1017.27
2023-01-01T04:43:14.662Z,1017.34
2023-01-01T04:44:15.411Z,1017.35
2023-01-01T04:45:16.006Z,1017.29
2023-01-01T04:46:16.635Z,1017.29
2023-01-01T04:47:17.277Z,1017.23
2023-01-01T04:48:17.920Z,1017.35
2023-01-01T04:49:18.524Z,1017.26
2023-01-01T04:50:19.120Z,1017.36
2023-01-01T04:51:19.742Z,1017.25
2023-01-01T04:52:20.318Z,1017.17
2023-01-01T04:53:20.967Z,1017.23
2023-01-01T04:54:21.565Z,1017.15
2023-01-01T04:55:22.268Z,1017.18
2023-01-01T04:56:22.866Z,1017.16
2023-01-01T04:57:23.473Z,1017.30
2023-01-01T04:58:24.124Z,1017.24
2023-01-01T04:59:24.775Z,1017.10
2023-01-01T05:00:25.369Z,1017.06
2023-01-01T05:01:26.135Z,1017.07
2023-01-01T05:02:26.927Z,1017.03
2023-01-01T05:03:27.719Z,1017.04
2023-01-01T05:04:28.313Z,1017.02
2023-01-01T05:05:28.916Z,1016.94
2023-01-01T05:06:29.508Z,1016.92
2023-01-01T05:07:30.113Z,1017.01
2023-01-01T05:08:30.704Z,1016.91
2023-01-01T05:09:31.315Z,1016.97
2023-01-01T05:10:31.902Z,1017.03
2023-01-01T05:11:32.507Z,1017.03
2023-01-01T05:12:33.109Z,1016.94
2023-01-01T05:13:33.767Z,1017.12
2023-01-01T05:14:34.359Z,1017.03
2023-01-01T05:15:34.960Z,1016.98
2023-01-01T05:16:35.639Z,1016.87
2023-01-01T05:17:36.214Z,1016.86
2023-01-01T05:18:36.811Z,1016.86
2023-01-01T05:19:37.469Z,1016.94
2023-01-01T05:20:38.061Z,1016.85
2023-01-01T05:21:38.675Z,1016.80
2023-01-01T05:22:39.258Z,1016.80
2023-01-01T05:23:39.865Z,1016.91
2023-01-01T05:24:40.464Z,1016.91
2023-01-01T05:25:41.053Z,1016.83
2023-01-01T05:26:41.650Z,1016.80
2023-01-01T05:27:42.252Z,1016.85
2023-01-01T05:28:42.846Z,1016.83
2023-01-01T05:29:43.448Z,1016.80
2023-01-01T05:30:44.115Z,1016.79
2023-01-01T05:31:44.922Z,1016.74
2023-01-01T05:32:45.720Z,1016.78
2023-01-01T05:33:46.321Z,1016.73
2023-01-01T05:34:46.916Z,1016.75
2023-01-01T05:35:48.319Z,1016.72
2023-01-01T05:36:48.911Z,1016.74
2023-01-01T05:37:49.513Z,1016.79
2023-01-01T05:38:50.107Z,1016.72
2023-01-01T05:39:50.708Z,1016.66
2023-01-01T05:40:51.302Z,1016.61
2023-01-01T05:41:51.930Z,1016.78
2023-01-01T05:42:52.541Z,1016.56
2023-01-01T05:43:53.142Z,1016.59
2023-01-01T05:44:53.887Z,1016.55
2023-01-01T05:45:54.544Z,1016.70
2023-01-01T05:46:55.136Z,1016.75
2023-01-01T05:47:55.739Z,1016.50
2023-01-01T05:48:56.332Z,1016.56
2023-01-01T05:49:56.934Z,1016.51
2023-01-01T05:50:57.528Z,1016.65
2023-01-01T05:51:58.229Z,1016.58
2023-01-01T05:52:58.825Z,1016.58
2023-01-01T05:53:59.430Z,1016.49
2023-01-01T05:55:00.010Z,1016.49
2023-01-01T05:56:00.612Z,1016.54
2023-01-01T05:57:01.254Z,1016.56
2023-01-01T05:58:01.867Z,1016.51
2023-01-01T05:59:03.312Z,1016.42
2023-01-01T06:00:04.066Z,1016.48
2023-01-01T06:01:04.680Z,1016.46
2023-01-01T06:02:05.349Z,1016.37
2023-01-01T06:03:05.997Z,1016.43
2023-01-01T06:04:06.674Z,1016.49
2023-01-01T06:05:07.272Z,1016.53
2023-01-01T06:06:07.871Z,1016.50
2023-01-01T06:07:08.464Z,1016.55
2023-01-01T06:08:09.065Z,1016.64
2023-01-01T06:09:09.659Z,1016.54
2023-01-01T06:10:10.265Z,1016.53
2023-01-01T06:11:10.860Z,1016.47
2023-01-01T06:12:11.529Z,1016.48
2023-01-01T06:13:13.556Z,1016.53
2023-01-01T06:14:13.788Z,1016.58
2023-01-01T06:15:14.383Z,1016.72
2023-01-01T06:16:15.005Z,1016.64
2023-01-01T06:17:15.631Z,1016.66
2023-01-01T06:18:16.228Z,1016.63
2023-01-01T06:19:16.824Z,1016.63
2023-01-01T06:20:17.489Z,1016.46
2023-01-01T06:21:18.088Z,1016.52
2023-01-01T06:22:18.688Z,1016.37
2023-01-01T06:23:19.288Z,1016.41
2023-01-01T06:24:19.885Z,1016.51
2023-01-01T06:25:20.477Z,1016.66
2023-01-01T06:26:21.078Z,1016.65
2023-01-01T06:27:21.676Z,1016.58
2023-01-01T06:28:22.338Z,1016.58
2023-01-01T06:29:22.937Z,1016.51
2023-01-01T06:30:24.410Z,1016.67
2023-01-01T06:31:24.989Z,1016.70
2023-01-01T06:32:25.642Z,1016.81
2023-01-01T06:33:26.357Z,1016.62
2023-01-01T06:34:27.011Z,1016.62
2023-01-01T06:35:27.607Z,1016.41
2023-01-01T06:36:28.216Z,1016.44
2023-01-01T06:37:28.805Z,1016.61
2023-01-01T06:38:29.408Z,1016.65
2023-01-01T06:39:30.014Z,1016.67
2023-01-01T06:40:30.724Z,1016.83
2023-01-01T06:41:32.120Z,1016.85
2023-01-01T06:42:34.103Z,1016.67
2023-01-01T06:43:34.313Z,1016.67
2023-01-01T06:44:34.911Z,1016.71
2023-01-01T06:45:35.585Z,1016.67
2023-01-01T06:46:36.286Z,1016.76
2023-01-01T06:47:36.905Z,1016.89
2023-01-01T06:48:37.527Z,1016.91
2023-01-01T06:49:38.126Z,1016.96
2023-01-01T06:50:38.729Z,1016.99
2023-01-01T06:51:39.328Z,1016.93
2023-01-01T06:52:39.927Z,1016.93
2023-01-01T06:53:40.532Z,1016.92
2023-01-01T06:54:41.135Z,1016.89
2023-01-01T06:55:41.729Z,1016.99
2023-01-01T06:56:42.329Z,1016.92
2023-01-01T06:57:42.983Z,1016.93
2023-01-01T06:58:44.446Z,1016.93
2023-01-01T06:59:45.098Z,1016.97
2023-01-01T07:00:45.699Z,1016.94
2023-01-01T07:01:46.389Z,1017.00
2023-01-01T07:02:47.130Z,1017.06
2023-01-01T07:03:47.810Z,1017.04
2023-01-01T07:04:48.476Z,1017.11
2023-01-01T07:05:49.071Z,1017.19
2023-01-01T07:06:49.672Z,1017.15
2023-01-01T07:07:50.283Z,1017.17
2023-01-01T07:08:50.864Z,1017.15
2023-01-01T07:09:51.474Z,1017.15
2023-01-01T07:10:52.056Z,1017.12
2023-01-01T07:11:52.651Z,1017.22
2023-01-01T07:12:53.257Z,1017.17
2023-01-01T07:13:53.853Z,1017.14
2023-01-01T07:14:54.527Z,1017.26
2023-01-01T07:15:55.125Z,1017.28
2023-01-01T07:16:55.721Z,1017.31
2023-01-01T07:17:56.314Z,1017.31
2023-01-01T07:18:56.915Z,1017.14
2023-01-01T07:19:57.512Z,1017.23
2023-01-01T07:20:58.113Z,1017.14
2023-01-01T07:21:58.707Z,1017.21
2023-01-01T07:22:59.309Z,1017.31
2023-01-01T07:23:59.923Z,1017.20
2023-01-01T07:25:00.520Z,1017.20
2023-01-01T07:26:01.108Z,1017.14
2023-01-01T07:27:01.710Z,1017.21
2023-01-01T07:28:02.311Z,1017.21
2023-01-01T07:29:07.414Z,1017.24
2023-01-01T07:30:04.494Z,1017.29
2023-01-01T07:31:05.153Z,1017.33
2023-01-01T07:32:05.768Z,1017.35
2023-01-01T07:33:06.371Z,1017.29
2023-01-01T07:34:06.971Z,1017.39
2023-01-01T07:35:07.629Z,1017.38
2023-01-01T07:36:08.217Z,1017.29
2023-01-01T07:37:08.968Z,1017.46
2023-01-01T07:38:09.562Z,1017.46
2023-01-01T07:39:10.168Z,1017.37
2023-01-01T07:40:10.958Z,1017.60
2023-01-01T07:41:11.584Z,1017.57
2023-01-01T07:42:12.162Z,1017.50
2023-01-01T07:43:12.910Z,1017.36
2023-01-01T07:44:13.508Z,1017.42
2023-01-01T07:45:14.166Z,1017.43
2023-01-01T07:46:14.795Z,1017.51
2023-01-01T07:47:15.418Z,1017.60
2023-01-01T07:48:16.009Z,1017.54
2023-01-01T07:49:16.614Z,1017.56
2023-01-01T07:50:17.379Z,1017.50
2023-01-01T07:51:17.961Z,1017.44
2023-01-01T07:52:18.550Z,1017.43
2023-01-01T07:53:19.149Z,1017.53
2023-01-01T07:54:19.745Z,1017.53
2023-01-01T07:55:20.349Z,1017.49
2023-01-01T07:56:20.942Z,1017.54
2023-01-01T07:57:21.546Z,1017.57
2023-01-01T07:58:22.163Z,1017.53
2023-01-01T07:59:22.746Z,1017.43
2023-01-01T08:00:23.344Z,1017.38
2023-01-01T08:01:24.027Z,1017.39
2023-01-01T08:02:24.927Z,1017.42
2023-01-01T08:03:25.629Z,1017.45
2023-01-01T08:04:26.242Z,1017.38
2023-01-01T08:05:27.329Z,1017.38
2023-01-01T08:06:28.015Z,1017.45
2023-01-01T08:07:28.620Z,1017.40
2023-01-01T08:08:29.282Z,1017.42
2023-01-01T08:09:29.891Z,1017.37
2023-01-01T08:10:30.528Z,1017.29
2023-01-01T08:11:31.140Z,1017.32
2023-01-01T08:12:31.807Z,1017.21
2023-01-01T08:13:32.431Z,1017.21
2023-01-01T08:14:33.014Z,1017.17
2023-01-01T08:15:33.618Z,1017.15
2023-01-01T08:16:34.254Z,1017.21
2023-01-01T08:17:34.877Z,1017.12
2023-01-01T08:18:35.479Z,1017.15
2023-01-01T08:19:36.073Z,1017.19
2023-01-01T08:20:36.666Z,1017.18
2023-01-01T08:21:37.267Z,1017.29
2023-01-01T08:22:37.894Z,1017.37
2023-01-01T08:23:38.523Z,1017.31
2023-01-01T08:24:39.121Z,1017.32
2023-01-01T08:25:39.720Z,1017.30
2023-01-01T08:26:40.316Z,1017.26
2023-01-01T08:27:40.999Z,1017.37
2023-01-01T08:28:41.575Z,1017.35
2023-01-01T08:29:42.185Z,1017.32
2023-01-01T08:30:42.788Z,1017.26
2023-01-01T08:31:43.415Z,1017.37
2023-01-01T08:32:44.009Z,1017.15
2023-01-01T08:33:45.409Z,1017.14
2023-01-01T08:34:46.039Z,1017.17
2023-01-01T08:35:51.972Z,1017.25
2023-01-01T08:36:48.229Z,1017.21
2023-01-01T08:37:48.886Z,1017.15
2023-01-01T08:38:49.625Z,1017.18
2023-01-01T08:39:50.234Z,1017.11
2023-01-01T08:40:50.846Z,1017.07
2023-01-01T08:41:51.428Z,1016.96
2023-01-01T08:42:52.024Z,1017.02
2023-01-01T08:43:52.627Z,1017.19
2023-01-01T08:44:53.740Z,1017.14
2023-01-01T08:45:54.297Z,1017.07
2023-01-01T08:46:55.008Z,1017.19
2023-01-01T08:47:55.661Z,1017.21
2023-01-01T08:48:56.267Z,1017.24
2023-01-01T08:49:56.856Z,1017.21
2023-01-01T08:50:57.505Z,1017.09
2023-01-01T08:51:58.105Z,1017.18
2023-01-01T08:52:58.767Z,1017.02
2023-01-01T08:53:59.361Z,1017.12
2023-01-01T08:54:59.968Z,1017.19
2023-01-01T08:56:00.572Z,1017.11
2023-01-01T08:57:01.167Z,1017.09
2023-01-01T08:58:01.761Z,1017.18
2023-01-01T08:59:04.467Z,1017.23
2023-01-01T09:00:03.953Z,1017.15
2023-01-01T09:01:04.749Z,1017.18
2023-01-01T09:02:06.350Z,1017.09
2023-01-01T09:03:07.238Z,1017.12
2023-01-01T09:04:13.593Z,1017.11
2023-01-01T09:05:09.509Z,1017.18
2023-01-01T09:06:10.103Z,1017.11
2023-01-01T09:07:10.703Z,1017.11
2023-01-01T09:08:11.344Z,1017.20
2023-01-01T09:09:11.943Z,1017.09
2023-01-01T09:10:12.539Z,1017.09
2023-01-01T09:11:13.146Z,1017.20
2023-01-01T09:12:13.807Z,1017.11
2023-01-01T09:13:14.408Z,1017.22
2023-01-01T09:14:15.001Z,1017.27
2023-01-01T09:15:15.605Z,1017.17
2023-01-01T09:16:16.242Z,1017.17
2023-01-01T09:17:16.864Z,1017.21
2023-01-01T09:18:17.466Z,1017.16
2023-01-01T09:19:18.122Z,1017.17
2023-01-01T09:20:18.728Z,1017.21
2023-01-01T09:21:19.312Z,1017.11
2023-01-01T09:22:19.907Z,1017.10
2023-01-01T09:23:20.506Z,1016.99
2023-01-01T09:24:21.103Z,1017.11
2023-01-01T09:25:21.765Z,1017.04
2023-01-01T09:26:22.369Z,1017.11
2023-01-01T09:27:22.973Z,1016.99
2023-01-01T09:28:26.004Z,1017.05
2023-01-01T09:29:25.161Z,1016.92
2023-01-01T09:30:25.811Z,1016.84
2023-01-01T09:31:26.483Z,1016.90
2023-01-01T09:32:27.106Z,1017.01
2023-01-01T09:33:27.708Z,1016.99
2023-01-01T09:34:28.376Z,1016.96
2023-01-01T09:35:28.979Z,1016.97
2023-01-01T09:36:29.570Z,1017.06
2023-01-01T09:37:30.174Z,1016.97
2023-01-01T09:38:30.766Z,1017.11
2023-01-01T09:39:31.367Z,1017.08
2023-01-01T09:40:31.983Z,1017.01
2023-01-01T09:41:32.571Z,1016.92
2023-01-01T09:42:33.173Z,1016.98
2023-01-01T09:43:33.759Z,1016.94
2023-01-01T09:44:34.354Z,1017.04
2023-01-01T09:45:35.055Z,1017.02
2023-01-01T09:46:35.735Z,1016.92
2023-01-01T09:47:36.342Z,1017.01
2023-01-01T09:48:37.084Z,1017.08
2023-01-01T09:49:37.686Z,1017.14
2023-01-01T09:50:38.282Z,1017.14
2023-01-01T09:51:45.206Z,1017.14
2023-01-01T09:52:40.475Z,1017.12
2023-01-01T09:53:41.078Z,1017.11
2023-01-01T09:54:41.664Z,1016.92
2023-01-01T09:55:42.266Z,1017.08
2023-01-01T09:56:42.860Z,1016.92
2023-01-01T09:57:43.614Z,1016.97
2023-01-01T09:58:44.209Z,1016.99
2023-01-01T09:59:45.660Z,1016.94
2023-01-01T10:00:46.276Z,1016.98
2023-01-01T10:01:46.959Z,1017.07
2023-01-01T10:02:51.748Z,1017.06
2023-01-01T10:03:49.171Z,1017.13
2023-01-01T10:04:49.781Z,1017.17
2023-01-01T10:05:50.491Z,1017.24
2023-01-01T10:06:51.078Z,1017.12
2023-01-01T10:07:51.678Z,1017.20
2023-01-01T10:08:52.268Z,1017.15
2023-01-01T10:09:52.935Z,1017.15
2023-01-01T10:10:53.588Z,1017.29
2023-01-01T10:11:54.181Z,1017.29
2023-01-01T10:12:54.790Z,1017.39
2023-01-01T10:13:55.420Z,1017.35
2023-01-01T10:15:00.693Z,1017.44
2023-01-01T10:15:57.614Z,1017.18
2023-01-01T10:16:58.305Z,1017.19
2023-01-01T10:17:58.909Z,1017.19
2023-01-01T10:18:59.504Z,1017.10
2023-01-01T10:20:00.194Z,1017.16
2023-01-01T10:21:00.775Z,1017.18
2023-01-01T10:22:01.417Z,1017.35
2023-01-01T10:23:01.995Z,1017.52
2023-01-01T10:24:02.594Z,1017.40
2023-01-01T10:25:03.219Z,1017.43
2023-01-01T10:26:03.800Z,1017.62
2023-01-01T10:27:04.398Z,1017.68
2023-01-01T10:28:04.997Z,1017.71
2023-01-01T10:29:05.589Z,1017.76
2023-01-01T10:30:06.189Z,1017.61
2023-01-01T10:31:06.783Z,1017.57
2023-01-01T10:32:07.428Z,1017.62
2023-01-01T10:33:08.047Z,1017.75
2023-01-01T10:34:08.658Z,1017.85
2023-01-01T10:35:09.245Z,1017.76
2023-01-01T10:36:09.846Z,1017.73
2023-01-01T10:37:10.447Z,1017.71
2023-01-01T10:38:11.108Z,1017.66
2023-01-01T10:39:11.703Z,1017.66
2023-01-01T10:40:12.305Z,1017.62
2023-01-01T10:41:19.172Z,1017.80
2023-01-01T10:42:13.560Z,1017.75
2023-01-01T10:43:14.153Z,1017.83
2023-01-01T10:44:14.759Z,1017.82
2023-01-01T10:45:15.365Z,1017.68
2023-01-01T10:46:15.993Z,1017.72
2023-01-01T10:47:16.591Z,1017.80
2023-01-01T10:48:17.190Z,1017.89
2023-01-01T10:49:17.783Z,1018.12
2023-01-01T10:50:18.386Z,1017.95
2023-01-01T10:51:18.981Z,1017.94
2023-01-01T10:52:19.585Z,1017.94
2023-01-01T10:53:20.177Z,1017.81
2023-01-01T10:54:21.248Z,1017.79
2023-01-01T10:55:22.417Z,1017.87
2023-01-01T10:56:23.018Z,1017.87
2023-01-01T10:57:23.618Z,1017.89
2023-01-01T10:58:24.223Z,1017.82
2023-01-01T10:59:24.879Z,1017.79
2023-01-01T11:00:26.335Z,1017.90
2023-01-01T11:01:27.086Z,1017.94
2023-01-01T11:02:27.914Z,1017.85
2023-01-01T11:03:28.651Z,1017.92
2023-01-01T11:04:29.252Z,1017.79
2023-01-01T11:05:29.847Z,1017.65
2023-01-01T11:06:30.455Z,1017.55
2023-01-01T11:07:31.043Z,1017.55
2023-01-01T11:08:31.671Z,1017.36
2023-01-01T11:09:32.276Z,1017.57
2023-01-01T11:10:32.915Z,1017.38
2023-01-01T11:11:33.507Z,1017.37
2023-01-01T11:13:03.643Z,1017.34
2023-01-01T11:13:35.691Z,1017.34
2023-01-01T11:14:37.147Z,1017.36
2023-01-01T11:15:37.769Z,1017.31
2023-01-01T11:16:38.363Z,1017.32
2023-01-01T11:17:39.010Z,1017.34
2023-01-01T11:18:39.611Z,1017.32
2023-01-01T11:19:43.050Z,1017.31
2023-01-01T11:20:41.814Z,1017.20
2023-01-01T11:21:42.398Z,1017.28
2023-01-01T11:22:43.799Z,1017.31
2023-01-01T11:23:44.392Z,1017.26
2023-01-01T11:24:44.993Z,1017.29
2023-01-01T11:25:45.589Z,1017.30
2023-01-01T11:26:52.272Z,1017.30
2023-01-01T11:27:47.919Z,1017.28
2023-01-01T11:28:48.616Z,1017.25
2023-01-01T11:29:49.220Z,1017.27
2023-01-01T11:30:49.929Z,1017.30
2023-01-01T11:31:50.517Z,1017.25
2023-01-01T11:32:55.415Z,1017.30
2023-01-01T11:33:52.767Z,1017.34
2023-01-01T11:34:53.372Z,1017.34
2023-01-01T11:35:53.965Z,1017.26
2023-01-01T11:36:54.569Z,1017.32
2023-01-01T11:37:55.163Z,1017.30
2023-01-01T11:38:55.767Z,1017.35
2023-01-01T11:39:56.361Z,1017.36
2023-01-01T11:40:56.965Z,1017.36
2023-01-01T11:41:57.583Z,1017.29
2023-01-01T11:42:58.805Z,1017.24
2023-01-01T11:43:59.474Z,1017.20
2023-01-01T11:45:00.089Z,1017.18
2023-01-01T11:46:00.765Z,1017.24
2023-01-01T11:47:01.374Z,1017.18
2023-01-01T11:48:01.963Z,1017.15
2023-01-01T11:49:02.563Z,1017.01
2023-01-01T11:50:03.163Z,1017.17
2023-01-01T11:51:03.764Z,1017.05
2023-01-01T11:52:04.349Z,1017.10
2023-01-01T11:53:04.953Z,1017.06
2023-01-01T11:54:05.586Z,1017.01
2023-01-01T11:55:06.205Z,1017.04
2023-01-01T11:56:06.798Z,1017.05
2023-01-01T11:57:07.407Z,1016.94
2023-01-01T11:58:09.690Z,1017.02
2023-01-01T11:59:10.438Z,1017.02
2023-01-01T12:00:11.036Z,1017.03
2023-01-01T12:01:11.733Z,1017.01
2023-01-01T12:02:12.377Z,1016.96
2023-01-01T12:03:13.052Z,1017.02
2023-01-01T12:04:13.689Z,1016.94
2023-01-01T12:05:14.334Z,1016.89
2023-01-01T12:06:14.927Z,1016.85
2023-01-01T12:07:15.529Z,1016.85
2023-01-01T12:08:16.980Z,1016.92
2023-01-01T12:09:18.889Z,1016.79
2023-01-01T12:10:19.191Z,1016.75
2023-01-01T12:11:19.828Z,1016.83
2023-01-01T12:12:20.491Z,1016.77
2023-01-01T12:13:21.120Z,1016.82
2023-01-01T12:14:21.707Z,1016.80